Time;durP1;ratioP1;P1;durP2;ratioP2;P2;SDS_P1;SDS_P2;PMS_P1;PMS_P2;Temp;Humidity;BMP_temperature;BMP_pressure;BME280_temperature;BME280_humidity;BME280_pressure;Samples;Min_cycle;Max_cycle;Signal;HPM_P1;HPM_P2
2023/06/09 00:01:13;;;;;;;8.15;4.80;;;;;;;17.99;64.28;101241.38;5023114;28;20427;-74
2023/06/09 00:03:39;;;;;;;7.95;4.53;;;;;;;17.95;64.79;101239.88;5019409;28;20029;-70
2023/06/09 00:06:05;;;;;;;9.10;4.82;;;;;;;18.07;64.55;101247.03;5020815;28;20091;-74
2023/06/09 00:08:39;;;;;;;6.38;4.60;;;;;;;17.91;64.34;101247.34;5024183;28;20115;-70
2023/06/09 00:11:05;;;;;;;7.10;4.90;;;;;;;17.92;64.86;101246.34;5020318;28;20029;-74
2023/06/09 00:13:30;;;;;;;6.10;4.93;;;;;;;17.87;64.98;101244.00;5024335;28;20029;-75
2023/06/09 00:15:56;;;;;;;9.57;5.10;;;;;;;17.79;65.25;101250.94;5007012;28;20400;-73
2023/06/09 00:18:24;;;;;;;9.07;4.90;;;;;;;17.84;65.40;101243.38;5022782;28;20029;-74
2023/06/09 00:20:50;;;;;;;8.02;5.07;;;;;;;17.71;65.35;101238.03;5021721;28;20104;-73
2023/06/09 00:23:16;;;;;;;7.88;5.00;;;;;;;17.60;65.62;101236.16;5023698;28;20056;-72
2023/06/09 00:25:41;;;;;;;8.30;6.05;;;;;;;17.66;65.51;101243.75;5017497;28;20025;-71
2023/06/09 00:28:09;;;;;;;10.00;6.40;;;;;;;17.60;65.19;101240.66;5021467;28;20480;-73
2023/06/09 00:30:34;;;;;;;8.98;6.28;;;;;;;17.49;65.34;101237.91;5022069;28;20498;-75
2023/06/09 00:33:00;;;;;;;9.57;5.80;;;;;;;17.53;65.20;101244.78;5001948;28;20041;-70
2023/06/09 00:35:25;;;;;;;9.77;5.53;;;;;;;17.48;65.70;101241.56;5015360;28;20479;-74
2023/06/09 00:37:50;;;;;;;9.18;5.35;;;;;;;17.42;65.68;101243.72;5021457;28;20048;-77
2023/06/09 00:40:16;;;;;;;8.88;6.00;;;;;;;17.35;66.00;101247.00;5021678;28;20526;-74
2023/06/09 00:42:41;;;;;;;10.07;5.65;;;;;;;17.37;65.80;101243.19;5023312;28;20258;-72
2023/06/09 00:45:07;;;;;;;8.20;5.25;;;;;;;17.32;65.76;101237.31;5005255;28;20043;-76
2023/06/09 00:47:32;;;;;;;8.10;5.13;;;;;;;17.21;65.97;101234.53;5022643;28;20037;-73
2023/06/09 00:49:58;;;;;;;7.15;4.88;;;;;;;17.20;65.63;101243.56;5025452;28;20484;-75
2023/06/09 00:52:25;;;;;;;8.30;4.80;;;;;;;17.24;65.86;101238.84;5024714;28;20013;-74
2023/06/09 00:54:52;;;;;;;7.10;4.75;;;;;;;17.14;65.78;101225.19;5014763;28;20121;-73
2023/06/09 00:57:18;;;;;;;10.55;5.32;;;;;;;17.16;65.66;101234.00;5014253;28;20046;-76
2023/06/09 00:59:43;;;;;;;11.52;4.88;;;;;;;17.16;65.66;101234.00;5022279;28;20524;-71
2023/06/09 01:02:12;;;;;;;7.93;4.90;;;;;;;17.02;65.88;101231.47;5022319;28;20036;-74
2023/06/09 01:04:49;;;;;;;8.68;4.93;;;;;;;16.94;65.68;101229.31;5022912;28;20021;-74
2023/06/09 01:07:28;;;;;;;9.68;4.95;;;;;;;16.87;65.62;101228.88;5013373;28;20037;-72
2023/06/09 01:10:15;;;;;;;9.38;5.13;;;;;;;16.88;65.15;101225.22;5020006;28;20033;-69
2023/06/09 01:12:49;;;;;;;8.73;4.95;;;;;;;16.88;65.50;101227.91;5019908;28;20033;-77
2023/06/09 01:15:19;;;;;;;7.82;5.25;;;;;;;16.83;66.00;101216.63;5022705;28;20026;-70
2023/06/09 01:17:52;;;;;;;9.18;5.15;;;;;;;16.73;65.72;101222.78;5019556;28;20111;-74
2023/06/09 01:20:53;;;;;;;8.77;5.15;;;;;;;16.74;65.44;101219.97;5014601;28;20072;-76
2023/06/09 01:23:52;;;;;;;9.75;4.93;;;;;;;16.64;65.44;101219.75;5016020;28;20025;-74
2023/06/09 01:26:18;;;;;;;7.82;4.97;;;;;;;16.69;65.84;101211.34;5012451;28;20046;-70
2023/06/09 01:28:47;;;;;;;6.80;4.68;;;;;;;16.58;65.98;101220.16;5023336;28;20495;-75
2023/06/09 01:31:15;;;;;;;6.80;4.75;;;;;;;16.54;66.50;101217.78;5018306;28;20255;-71
2023/06/09 01:33:42;;;;;;;8.43;5.10;;;;;;;16.49;66.38;101210.06;5008429;28;20041;-72
2023/06/09 01:36:08;;;;;;;8.35;5.43;;;;;;;16.46;66.30;101209.41;5005186;28;20033;-75
2023/06/09 01:38:33;;;;;;;7.88;4.90;;;;;;;16.42;66.41;101211.44;5022310;28;20075;-73
2023/06/09 01:40:59;;;;;;;7.95;4.70;;;;;;;16.36;66.07;101206.50;5022318;28;20104;-76
2023/06/09 01:43:24;;;;;;;10.27;5.35;;;;;;;16.36;66.43;101202.00;5021789;28;20068;-74
2023/06/09 01:45:51;;;;;;;7.25;4.68;;;;;;;16.35;66.22;101202.09;5022794;28;20132;-75
2023/06/09 01:48:39;;;;;;;7.88;5.32;;;;;;;16.36;66.41;101204.69;5021911;28;20026;-74
2023/06/09 01:51:18;;;;;;;9.00;5.45;;;;;;;16.25;66.75;101214.44;5021524;28;20029;-71
2023/06/09 01:53:53;;;;;;;7.38;5.30;;;;;;;16.13;66.75;101214.31;5021976;28;20103;-71
2023/06/09 01:56:32;;;;;;;8.48;5.00;;;;;;;16.19;66.41;101204.97;5020166;28;20037;-74
2023/06/09 01:59:03;;;;;;;6.22;5.00;;;;;;;16.14;66.89;101199.06;5021098;28;20037;-75
2023/06/09 02:01:32;;;;;;;8.27;5.00;;;;;;;16.16;66.60;101205.19;5002819;28;20267;-73
2023/06/09 02:04:00;;;;;;;8.02;4.85;;;;;;;16.06;66.80;101206.78;5022119;28;20029;-72
2023/06/09 02:06:26;;;;;;;10.10;5.13;;;;;;;16.05;66.97;101205.06;5021625;28;20036;-74
2023/06/09 02:08:52;;;;;;;10.85;5.43;;;;;;;15.96;66.90;101209.22;5016819;28;20025;-74
2023/06/09 02:11:18;;;;;;;8.48;4.88;;;;;;;16.00;67.26;101199.13;5022182;28;20483;-73
2023/06/09 02:13:43;;;;;;;8.73;5.15;;;;;;;15.91;67.29;101201.47;5021508;28;20029;-70
2023/06/09 02:16:08;;;;;;;10.05;4.97;;;;;;;15.96;67.28;101194.94;5015829;28;20033;-75
2023/06/09 02:18:34;;;;;;;8.13;5.10;;;;;;;15.88;67.58;101193.66;5021784;28;20179;-72
2023/06/09 02:20:59;;;;;;;9.43;5.40;;;;;;;15.84;67.54;101202.00;5021758;28;20033;-71
2023/06/09 02:23:24;;;;;;;6.55;4.75;;;;;;;15.85;67.67;101187.63;5021816;28;20030;-73
2023/06/09 02:25:50;;;;;;;9.07;5.15;;;;;;;15.75;67.45;101186.50;5021487;28;20234;-74
2023/06/09 02:28:16;;;;;;;7.63;4.90;;;;;;;15.71;67.72;101188.53;5019972;28;20056;-73
2023/06/09 02:30:42;;;;;;;8.40;5.45;;;;;;;15.65;67.94;101187.13;5021190;28;20630;-74
2023/06/09 02:33:08;;;;;;;9.32;5.05;;;;;;;15.63;67.82;101185.47;5016772;28;20112;-71
2023/06/09 02:35:34;;;;;;;6.78;5.18;;;;;;;15.58;68.03;101187.59;5018824;28;20735;-68
2023/06/09 02:38:05;;;;;;;8.55;5.72;;;;;;;15.59;67.59;101192.88;5018402;28;20198;-74
2023/06/09 02:40:31;;;;;;;11.25;5.63;;;;;;;15.47;67.82;101182.97;5000880;28;20057;-73
2023/06/09 02:42:56;;;;;;;9.15;5.55;;;;;;;15.45;68.00;101175.00;4997597;28;20487;-75
2023/06/09 02:45:21;;;;;;;7.50;5.43;;;;;;;15.43;67.84;101176.94;4991787;28;20058;-74
2023/06/09 02:47:47;;;;;;;7.72;5.13;;;;;;;15.47;68.00;101174.03;5019296;28;20566;-76
2023/06/09 02:50:12;;;;;;;9.52;5.85;;;;;;;15.36;68.18;101178.28;5014613;28;20030;-70
2023/06/09 02:52:39;;;;;;;11.00;5.47;;;;;;;15.38;68.10;101180.88;5019464;28;20261;-74
2023/06/09 02:55:05;;;;;;;8.20;5.18;;;;;;;15.28;68.00;101194.03;5021397;28;20075;-73
2023/06/09 02:57:31;;;;;;;8.70;5.50;;;;;;;15.28;68.15;101177.06;5021441;28;20017;-74
2023/06/09 02:59:58;;;;;;;9.75;5.30;;;;;;;15.24;68.40;101186.28;5016926;28;20048;-75
2023/06/09 03:02:24;;;;;;;7.63;5.32;;;;;;;15.20;68.17;101188.28;5015011;28;20026;-75
2023/06/09 03:04:52;;;;;;;9.82;5.93;;;;;;;15.17;68.49;101191.16;5021721;28;20041;-73
2023/06/09 03:07:17;;;;;;;8.48;5.45;;;;;;;15.13;68.55;101184.28;5014359;28;20026;-76
2023/06/09 03:09:43;;;;;;;9.48;5.40;;;;;;;15.11;68.90;101191.56;5021859;28;20036;-74
2023/06/09 03:12:09;;;;;;;9.77;4.95;;;;;;;15.07;69.34;101184.69;5022378;28;20037;-77
2023/06/09 03:14:35;;;;;;;8.32;5.10;;;;;;;15.11;69.12;101183.53;5021298;28;20061;-72
2023/06/09 03:17:04;;;;;;;8.18;6.00;;;;;;;14.98;69.06;101191.50;5025885;28;20233;-74
2023/06/09 03:19:30;;;;;;;9.00;5.60;;;;;;;14.94;69.24;101190.81;5024926;28;20156;-75
2023/06/09 03:21:57;;;;;;;8.38;5.47;;;;;;;14.96;69.31;101190.72;5025788;28;20445;-74
2023/06/09 03:24:22;;;;;;;9.93;5.75;;;;;;;14.85;69.48;101188.75;5020402;28;20149;-74
2023/06/09 03:26:48;;;;;;;9.48;5.38;;;;;;;14.83;69.87;101181.75;5026218;28;20021;-70
2023/06/09 03:29:14;;;;;;;10.02;5.43;;;;;;;14.81;70.13;101189.88;5025549;28;20037;-72
2023/06/09 03:31:39;;;;;;;11.23;5.90;;;;;;;14.80;70.00;101200.72;5025844;28;20037;-77
2023/06/09 03:34:05;;;;;;;8.38;5.63;;;;;;;14.83;70.37;101192.47;5022038;28;20045;-72
2023/06/09 03:36:30;;;;;;;8.30;5.13;;;;;;;14.74;70.52;101207.31;5021330;28;20029;-73
2023/06/09 03:38:55;;;;;;;8.00;5.40;;;;;;;14.74;70.78;101209.13;5022556;28;20042;-76
2023/06/09 03:41:21;;;;;;;8.73;5.55;;;;;;;14.75;70.96;101217.06;5023422;28;20036;-71
2023/06/09 03:43:47;;;;;;;8.40;5.07;;;;;;;14.75;70.94;101222.41;5023782;28;20052;-74
2023/06/09 03:46:12;;;;;;;10.32;5.18;;;;;;;14.70;71.25;101217.34;5015458;28;20037;-75
2023/06/09 03:48:39;;;;;;;9.65;5.60;;;;;;;14.67;71.22;101217.56;5025434;28;20029;-71
2023/06/09 03:51:05;;;;;;;9.45;5.63;;;;;;;14.64;71.59;101214.19;5023212;28;20025;-69
2023/06/09 03:53:30;;;;;;;7.63;5.72;;;;;;;14.64;71.58;101225.78;5008298;28;20029;-76
2023/06/09 03:55:55;;;;;;;9.88;6.22;;;;;;;14.73;71.47;101220.81;5022281;28;20083;-73
2023/06/09 03:58:21;;;;;;;11.02;6.20;;;;;;;14.70;71.66;101209.31;5024696;28;20515;-73
2023/06/09 04:00:47;;;;;;;7.95;5.53;;;;;;;14.66;71.75;101225.66;5024903;28;20254;-75
2023/06/09 04:03:13;;;;;;;12.38;5.80;;;;;;;14.73;71.79;101212.78;5021123;28;20079;-75
2023/06/09 04:05:38;;;;;;;7.75;5.70;;;;;;;14.69;72.22;101212.09;5020243;28;20108;-77
2023/06/09 04:08:04;;;;;;;10.18;5.90;;;;;;;14.66;72.51;101201.56;5024755;28;20092;-73
2023/06/09 04:10:29;;;;;;;9.57;5.80;;;;;;;14.63;72.56;101208.00;5023175;28;20501;-76
2023/06/09 04:12:54;;;;;;;9.18;5.72;;;;;;;14.71;72.76;101215.53;5024496;28;20049;-74
2023/06/09 04:15:20;;;;;;;9.77;5.55;;;;;;;14.63;73.05;101217.81;5024882;28;20049;-72
2023/06/09 04:17:45;;;;;;;12.27;6.13;;;;;;;14.65;73.22;101223.97;5024232;28;20030;-74
2023/06/09 04:20:12;;;;;;;14.50;5.90;;;;;;;14.63;73.66;101213.34;5013871;28;20045;-75
2023/06/09 04:22:46;;;;;;;10.68;6.10;;;;;;;14.67;73.46;101230.06;5003976;28;20498;-74
2023/06/09 04:25:11;;;;;;;8.98;5.68;;;;;;;14.68;73.73;101216.59;5024748;28;20071;-74
2023/06/09 04:27:37;;;;;;;9.55;5.90;;;;;;;14.83;73.46;101225.47;5025768;28;20041;-71
2023/06/09 04:30:04;;;;;;;10.07;5.97;;;;;;;14.81;73.57;101227.41;5028492;28;20091;-71
2023/06/09 04:32:32;;;;;;;10.98;6.88;;;;;;;14.79;73.81;101223.94;5021161;28;20506;-76
2023/06/09 04:34:58;;;;;;;10.55;6.43;;;;;;;14.80;74.00;101225.69;5024906;28;20021;-71
2023/06/09 04:37:25;;;;;;;13.50;7.03;;;;;;;14.76;73.98;101226.84;5015308;28;20491;-71
2023/06/09 04:39:50;;;;;;;10.85;6.65;;;;;;;14.84;74.42;101221.88;4993376;28;20073;-74
2023/06/09 04:42:19;;;;;;;10.40;6.07;;;;;;;14.89;74.23;101224.25;5024739;28;20427;-73
2023/06/09 04:44:47;;;;;;;13.65;6.68;;;;;;;14.91;74.74;101227.69;5024849;28;20037;-73
2023/06/09 04:47:14;;;;;;;11.85;6.50;;;;;;;15.01;74.23;101223.47;5023387;28;20034;-74
2023/06/09 04:49:41;;;;;;;10.57;6.82;;;;;;;15.02;74.20;101216.28;5024885;28;20095;-77
2023/06/09 04:52:07;;;;;;;10.50;6.82;;;;;;;15.05;74.36;101218.75;5014794;28;20510;-74
2023/06/09 04:54:33;;;;;;;9.30;6.22;;;;;;;15.25;74.23;101231.75;5023655;28;20029;-72
2023/06/09 04:56:59;;;;;;;10.93;6.43;;;;;;;15.23;74.31;101222.09;5027014;28;20649;-78
2023/06/09 04:59:25;;;;;;;11.50;6.97;;;;;;;15.33;74.34;101224.06;5004785;28;20398;-74
2023/06/09 05:01:52;;;;;;;12.75;7.20;;;;;;;15.37;74.23;101224.75;5024707;28;20040;-73
2023/06/09 05:04:18;;;;;;;13.02;6.80;;;;;;;15.49;73.86;101232.00;5024686;28;20025;-75
2023/06/09 05:06:44;;;;;;;11.13;7.10;;;;;;;15.49;73.96;101233.81;5023482;28;20569;-71
2023/06/09 05:09:09;;;;;;;12.38;6.97;;;;;;;15.56;74.22;101229.78;5025131;28;20115;-75
2023/06/09 05:11:38;;;;;;;11.65;7.30;;;;;;;15.65;73.98;101237.25;5024708;28;20394;-73
2023/06/09 05:14:07;;;;;;;12.30;7.55;;;;;;;15.78;74.04;101237.31;5017940;28;20018;-72
2023/06/09 05:16:37;;;;;;;12.05;7.43;;;;;;;15.81;73.84;101229.06;5023784;28;20381;-73
2023/06/09 05:19:02;;;;;;;11.48;7.15;;;;;;;15.96;73.54;101224.47;5021026;28;20030;-76
2023/06/09 05:21:28;;;;;;;15.23;7.43;;;;;;;15.96;73.77;101229.84;5022910;28;20083;-74
2023/06/09 05:23:53;;;;;;;14.93;7.63;;;;;;;16.08;73.53;101234.38;5020009;28;20060;-72
2023/06/09 05:26:19;;;;;;;12.98;7.93;;;;;;;16.06;73.18;101234.50;5021013;28;20045;-76
2023/06/09 05:28:48;;;;;;;11.93;7.05;;;;;;;16.16;73.32;101237.41;5021783;28;20138;-71
2023/06/09 05:31:14;;;;;;;11.85;8.32;;;;;;;16.28;73.70;101239.25;5020465;28;20512;-74
2023/06/09 05:33:40;;;;;;;13.23;8.20;;;;;;;16.32;73.52;101246.16;5020984;28;20091;-69
2023/06/09 05:36:09;;;;;;;12.18;7.80;;;;;;;16.41;73.69;101245.50;5013014;28;20427;-70
2023/06/09 05:38:34;;;;;;;13.50;8.43;;;;;;;16.54;72.73;101244.66;4998834;28;20489;-75
2023/06/09 05:41:00;;;;;;;14.15;8.27;;;;;;;16.63;73.22;101246.69;5018738;28;20030;-75
2023/06/09 05:43:29;;;;;;;11.85;8.15;;;;;;;16.77;73.16;101241.28;5020062;28;20086;-75
2023/06/09 05:45:56;;;;;;;14.50;8.82;;;;;;;16.79;72.73;101242.00;5016404;28;20041;-73
2023/06/09 05:48:21;;;;;;;13.50;8.88;;;;;;;16.97;72.52;101242.56;5020778;28;20029;-75
2023/06/09 05:50:47;;;;;;;11.63;8.02;;;;;;;17.14;72.33;101244.03;5018069;28;20467;-74
2023/06/09 05:53:12;;;;;;;15.23;8.95;;;;;;;17.25;72.12;101241.41;5021825;28;20495;-75
2023/06/09 05:55:38;;;;;;;13.73;8.60;;;;;;;17.36;72.10;101243.31;5016982;28;20248;-73
2023/06/09 05:58:03;;;;;;;14.25;9.60;;;;;;;17.57;71.29;101246.28;5022392;28;20104;-71
2023/06/09 06:00:33;;;;;;;13.68;9.18;;;;;;;17.63;70.79;101246.66;5019823;28;20026;-73
2023/06/09 06:03:03;;;;;;;17.35;9.95;;;;;;;17.79;70.66;101250.94;5020300;28;20025;-73
2023/06/09 06:05:29;;;;;;;17.10;9.63;;;;;;;18.11;69.89;101248.53;5021389;28;20467;-73
2023/06/09 06:07:56;;;;;;;16.80;9.80;;;;;;;18.14;68.59;101251.84;5014612;28;20451;-72
2023/06/09 06:10:22;;;;;;;14.10;9.65;;;;;;;18.40;68.58;101247.16;5021793;28;20049;-72
2023/06/09 06:12:47;;;;;;;14.10;9.60;;;;;;;18.62;67.48;101240.09;5020032;28;20021;-71
2023/06/09 06:15:13;;;;;;;13.27;9.68;;;;;;;18.77;67.32;101238.91;5021330;28;20028;-72
2023/06/09 06:17:38;;;;;;;12.75;9.98;;;;;;;18.98;67.03;101238.16;5017461;28;20028;-74
2023/06/09 06:20:05;;;;;;;16.55;9.82;;;;;;;19.21;66.49;101241.72;5014126;28;20487;-75
2023/06/09 06:22:31;;;;;;;15.75;10.15;;;;;;;19.36;66.08;101235.94;5021862;28;20037;-74
2023/06/09 06:24:57;;;;;;;12.68;9.65;;;;;;;19.62;65.79;101239.22;5012750;28;20050;-73
2023/06/09 06:27:22;;;;;;;14.30;10.45;;;;;;;19.67;64.54;101236.16;5019605;28;20037;-75
2023/06/09 06:29:48;;;;;;;15.48;10.77;;;;;;;19.82;64.33;101250.22;5021668;28;20037;-71
2023/06/09 06:32:13;;;;;;;15.63;10.70;;;;;;;19.99;63.53;101240.72;5021651;28;20398;-73
2023/06/09 06:34:39;;;;;;;15.95;10.93;;;;;;;20.06;62.69;101239.19;5022302;28;20159;-76
2023/06/09 06:37:04;;;;;;;13.13;10.70;;;;;;;20.19;62.39;101244.41;5012835;28;20356;-71
2023/06/09 06:39:29;;;;;;;15.30;10.65;;;;;;;20.22;62.29;101239.59;5017992;28;20017;-74
2023/06/09 06:41:55;;;;;;;17.55;11.20;;;;;;;20.40;62.87;101231.78;5023812;28;20013;-77
2023/06/09 06:44:20;;;;;;;18.42;11.80;;;;;;;20.57;61.90;101230.34;5023563;28;20382;-73
2023/06/09 06:46:46;;;;;;;14.05;10.40;;;;;;;20.81;60.94;101236.31;5025880;28;20367;-74
2023/06/09 06:49:11;;;;;;;15.18;10.70;;;;;;;20.95;61.05;101234.25;5027158;28;20376;-76
2023/06/09 06:51:40;;;;;;;17.20;11.23;;;;;;;21.10;60.04;101236.44;5026522;28;20022;-70
2023/06/09 06:54:05;;;;;;;14.18;11.55;;;;;;;21.16;59.41;101239.59;5024978;28;20099;-77
2023/06/09 06:56:31;;;;;;;15.10;10.90;;;;;;;21.41;59.17;101235.59;5026481;28;20434;-77
2023/06/09 06:58:56;;;;;;;14.35;11.02;;;;;;;21.41;58.05;101233.72;5026073;28;20237;-75
2023/06/09 07:01:22;;;;;;;15.20;11.05;;;;;;;21.66;58.95;101240.47;5026134;28;20029;-75
2023/06/09 07:03:51;;;;;;;14.70;10.75;;;;;;;21.71;57.73;101240.06;5027037;28;20379;-71
2023/06/09 07:06:17;;;;;;;15.65;10.70;;;;;;;21.82;58.01;101238.06;5026210;28;20103;-75
2023/06/09 07:08:43;;;;;;;15.88;10.98;;;;;;;21.90;57.70;101234.63;5026725;28;20030;-75
2023/06/09 07:11:08;;;;;;;17.50;11.82;;;;;;;22.18;57.27;101238.38;5020847;28;20033;-73
2023/06/09 07:13:34;;;;;;;17.10;11.07;;;;;;;22.18;56.62;101243.81;5025784;28;20100;-73
2023/06/09 07:16:00;;;;;;;12.95;10.63;;;;;;;22.30;55.98;101239.09;5022826;28;20037;-75
2023/06/09 07:18:26;;;;;;;21.73;11.00;;;;;;;22.66;57.03;101242.91;5018693;28;20399;-74
2023/06/09 07:20:51;;;;;;;15.63;10.90;;;;;;;22.79;55.24;101245.28;5025720;28;20127;-75
2023/06/09 07:23:17;;;;;;;14.27;9.82;;;;;;;23.06;54.35;101239.91;5025517;28;20128;-74
2023/06/09 07:25:43;;;;;;;17.27;10.43;;;;;;;23.35;53.65;101244.34;5026613;28;20284;-75
2023/06/09 07:28:08;;;;;;;16.73;10.43;;;;;;;23.85;53.02;101239.31;5025116;28;20028;-75
2023/06/09 07:30:33;;;;;;;25.38;12.40;;;;;;;23.84;52.54;101242.22;5026193;28;20417;-76
2023/06/09 07:32:59;;;;;;;16.85;11.43;;;;;;;24.44;51.31;101244.28;5018048;28;20049;-72
2023/06/09 07:35:25;;;;;;;13.52;10.48;;;;;;;24.85;49.58;101245.41;5022680;28;20036;-72
2023/06/09 07:37:50;;;;;;;13.50;9.95;;;;;;;25.14;49.06;101241.53;5026022;28;20024;-75
2023/06/09 07:40:16;;;;;;;13.85;10.80;;;;;;;25.59;47.30;101247.47;5026151;28;20043;-74
2023/06/09 07:42:41;;;;;;;13.43;10.45;;;;;;;25.91;46.49;101245.00;5025923;28;20418;-71
2023/06/09 07:45:10;;;;;;;14.23;10.55;;;;;;;26.25;44.87;101253.91;5025916;28;20057;-73
2023/06/09 07:47:35;;;;;;;13.07;10.80;;;;;;;26.57;44.61;101239.41;5026149;28;20029;-76
2023/06/09 07:50:00;;;;;;;13.57;10.48;;;;;;;26.81;43.34;101240.41;5022716;28;20055;-77
2023/06/09 07:52:26;;;;;;;14.32;10.75;;;;;;;27.32;43.21;101238.19;5025178;28;20511;-74
2023/06/09 07:54:51;;;;;;;12.25;10.60;;;;;;;27.74;42.61;101242.44;5024638;28;20464;-78
2023/06/09 07:57:17;;;;;;;14.00;10.90;;;;;;;27.86;41.06;101238.25;5023975;28;20105;-73
2023/06/09 07:59:42;;;;;;;13.68;11.18;;;;;;;28.12;40.64;101235.13;5025201;28;20498;-73
2023/06/09 08:02:11;;;;;;;14.85;10.70;;;;;;;28.37;40.67;101243.19;5025724;28;20604;-71
2023/06/09 08:04:37;;;;;;;15.77;10.80;;;;;;;28.76;39.71;101241.09;5024607;28;20040;-75
2023/06/09 08:07:03;;;;;;;12.40;10.82;;;;;;;29.26;37.84;101227.66;5020081;28;20033;-75
2023/06/09 08:09:28;;;;;;;13.48;10.40;;;;;;;29.51;37.40;101237.28;5023495;28;20180;-75
2023/06/09 08:11:54;;;;;;;12.00;10.73;;;;;;;29.68;37.00;101237.94;5011545;28;20539;-75
2023/06/09 08:14:19;;;;;;;14.88;11.07;;;;;;;30.35;36.80;101235.84;5018939;28;20025;-75
2023/06/09 08:16:45;;;;;;;13.65;10.18;;;;;;;30.70;35.23;101237.59;5009676;28;20286;-74
2023/06/09 08:19:11;;;;;;;13.68;10.13;;;;;;;31.10;35.05;101229.66;5020679;28;20104;-76
2023/06/09 08:21:43;;;;;;;12.10;9.55;;;;;;;31.64;34.04;101234.31;5025373;28;20206;-75
2023/06/09 08:24:09;;;;;;;13.18;10.68;;;;;;;31.41;33.90;101225.56;5019116;28;20065;-71
2023/06/09 08:26:35;;;;;;;11.75;10.40;;;;;;;31.64;33.38;101216.94;5022004;28;20068;-74
2023/06/09 08:29:04;;;;;;;12.32;10.45;;;;;;;31.77;33.10;101232.66;5021180;28;20071;-73
2023/06/09 08:31:31;;;;;;;11.18;9.32;;;;;;;32.14;33.73;101228.50;5022712;28;20044;-74
2023/06/09 08:33:57;;;;;;;10.00;8.93;;;;;;;32.47;31.17;101231.28;5024599;28;20025;-73
2023/06/09 08:36:23;;;;;;;10.50;8.20;;;;;;;33.32;30.44;101223.03;5022807;28;20029;-76
2023/06/09 08:38:48;;;;;;;8.93;8.02;;;;;;;33.42;30.25;101228.94;5021706;28;20029;-74
2023/06/09 08:41:15;;;;;;;9.55;8.07;;;;;;;33.87;30.09;101234.47;5022377;28;20041;-76
2023/06/09 08:43:41;;;;;;;11.57;9.27;;;;;;;33.92;29.22;101235.47;5018010;28;20030;-75
2023/06/09 08:46:10;;;;;;;10.68;9.30;;;;;;;34.08;28.61;101225.84;5018292;28;20040;-69
2023/06/09 08:48:46;;;;;;;11.18;8.50;;;;;;;34.14;29.21;101230.47;5023267;28;20299;-75
2023/06/09 08:51:12;;;;;;;10.27;7.60;;;;;;;34.53;27.60;101230.38;5024201;28;20033;-72
2023/06/09 08:53:37;;;;;;;9.50;8.55;;;;;;;34.17;27.67;101234.69;5024303;28;20025;-73
2023/06/09 08:56:03;;;;;;;9.20;7.55;;;;;;;34.25;28.40;101228.91;4997739;28;20068;-74
2023/06/09 08:58:29;;;;;;;12.00;7.60;;;;;;;34.40;27.23;101221.09;5022932;28;20400;-77
2023/06/09 09:00:55;;;;;;;7.70;6.70;;;;;;;34.07;27.94;101226.06;5020824;28;20384;-75
2023/06/09 09:03:20;;;;;;;8.50;6.57;;;;;;;34.25;27.88;101225.28;5017962;28;20171;-73
2023/06/09 09:05:47;;;;;;;7.28;6.43;;;;;;;34.92;26.58;101221.69;5023891;28;20112;-71
2023/06/09 09:08:16;;;;;;;7.80;6.57;;;;;;;35.36;25.53;101221.59;5021906;28;20074;-75
2023/06/09 09:10:43;;;;;;;7.50;6.72;;;;;;;35.66;24.79;101205.88;5023743;28;20068;-74
2023/06/09 09:13:11;;;;;;;11.68;6.97;;;;;;;35.43;24.86;101211.28;5024628;28;20128;-70
2023/06/09 09:15:37;;;;;;;13.23;6.72;;;;;;;35.27;25.52;101209.16;5024300;28;20041;-74
2023/06/09 09:18:09;;;;;;;7.03;6.30;;;;;;;35.60;25.74;101211.50;5002786;28;20026;-72
2023/06/09 09:20:35;;;;;;;8.40;6.05;;;;;;;36.14;24.26;101204.09;5012969;28;20515;-76
2023/06/09 09:23:02;;;;;;;6.50;5.90;;;;;;;36.23;24.73;101207.34;5023282;28;20021;-73
2023/06/09 09:25:30;;;;;;;9.07;6.47;;;;;;;36.99;24.40;101200.84;5003854;28;20128;-70
2023/06/09 09:28:05;;;;;;;9.15;6.35;;;;;;;37.51;23.91;101206.41;5024766;28;20460;-72
2023/06/09 09:30:50;;;;;;;8.27;6.32;;;;;;;38.14;23.84;101204.50;5005071;28;20518;-77
2023/06/09 09:33:23;;;;;;;6.40;5.15;;;;;;;38.49;21.96;101203.41;5023331;28;20033;-75
2023/06/09 09:35:54;;;;;;;6.78;5.90;;;;;;;38.17;22.42;101203.13;5019637;28;20498;-77
2023/06/09 09:38:22;;;;;;;7.47;6.72;;;;;;;37.94;21.85;101191.09;5021017;28;20444;-75
2023/06/09 09:40:50;;;;;;;8.20;6.43;;;;;;;38.67;22.19;101202.25;5021987;28;20328;-76
2023/06/09 09:43:16;;;;;;;6.43;5.68;;;;;;;38.79;20.38;101197.47;5000140;28;20052;-76
2023/06/09 09:45:48;;;;;;;6.63;5.88;;;;;;;38.77;21.45;101202.44;5023359;28;20064;-77
2023/06/09 09:48:19;;;;;;;8.55;5.65;;;;;;;39.06;21.56;101198.38;5019787;28;20025;-72
2023/06/09 09:50:47;;;;;;;8.82;6.30;;;;;;;39.30;21.05;101190.66;5004990;28;20091;-75
2023/06/09 09:53:13;;;;;;;7.88;6.28;;;;;;;39.65;20.39;101183.75;5022417;28;20037;-75
2023/06/09 09:55:45;;;;;;;6.72;5.95;;;;;;;39.57;20.90;101192.59;5024026;28;20025;-75
2023/06/09 09:58:11;;;;;;;7.00;5.50;;;;;;;39.76;19.89;101193.09;5022393;28;20014;-74
2023/06/09 10:00:38;;;;;;;7.43;5.80;;;;;;;39.63;19.90;101196.25;5020147;28;20033;-73
2023/06/09 10:03:13;;;;;;;7.00;6.30;;;;;;;39.53;20.68;101192.28;5022554;28;20052;-75
2023/06/09 10:05:43;;;;;;;10.50;6.70;;;;;;;39.34;20.80;101190.97;5023254;28;20056;-71
2023/06/09 10:08:10;;;;;;;9.93;6.30;;;;;;;40.02;19.64;101185.81;5022596;28;20390;-73
2023/06/09 10:10:36;;;;;;;6.85;5.82;;;;;;;40.13;19.52;101181.16;5023219;28;20071;-74
2023/06/09 10:13:03;;;;;;;8.68;6.13;;;;;;;39.78;19.57;101185.31;5022025;28;20056;-75
2023/06/09 10:15:30;;;;;;;7.40;6.07;;;;;;;40.00;19.58;101188.00;5022366;28;20503;-75
2023/06/09 10:17:56;;;;;;;6.47;5.78;;;;;;;40.36;19.43;101182.75;5019956;28;20033;-71
2023/06/09 10:20:22;;;;;;;6.53;5.93;;;;;;;40.66;19.10;101176.53;5020631;28;20124;-74
2023/06/09 10:22:52;;;;;;;7.30;6.00;;;;;;;40.54;19.34;101182.31;5026556;28;20021;-80
2023/06/09 10:25:17;;;;;;;6.35;5.65;;;;;;;40.43;17.68;101184.19;5022634;28;20049;-74
2023/06/09 10:27:44;;;;;;;6.25;5.38;;;;;;;40.84;18.94;101181.63;5019784;28;20380;-78
2023/06/09 10:30:15;;;;;;;7.88;5.93;;;;;;;40.86;18.26;101179.44;5009298;28;20030;-73
2023/06/09 10:32:47;;;;;;;5.63;5.13;;;;;;;40.50;17.27;101183.94;5010721;28;20025;-77
2023/06/09 10:35:17;;;;;;;6.70;6.00;;;;;;;39.52;18.65;101181.41;5021128;28;20022;-73
2023/06/09 10:37:45;;;;;;;7.90;6.10;;;;;;;39.51;18.66;101172.22;5026269;28;20487;-79
2023/06/09 10:40:33;;;;;;;6.90;6.20;;;;;;;39.70;19.20;101183.00;5026230;28;20037;-77
2023/06/09 10:43:24;;;;;;;7.03;6.20;;;;;;;40.47;18.75;101173.34;5025904;28;20054;-79
2023/06/09 10:45:52;;;;;;;6.40;5.78;;;;;;;41.28;17.59;101168.16;5022208;28;20041;-75
2023/06/09 10:48:49;;;;;;;6.53;5.72;;;;;;;42.18;18.14;101172.44;5024574;28;20022;-76
2023/06/09 10:51:26;;;;;;;6.07;4.75;;;;;;;42.34;16.59;101168.53;5019375;28;20096;-73
2023/06/09 10:54:07;;;;;;;5.68;5.18;;;;;;;41.78;16.59;101161.00;5022460;28;20100;-72
2023/06/09 10:56:43;;;;;;;5.78;4.63;;;;;;;41.40;16.56;101167.94;5020272;28;20033;-78
2023/06/09 10:59:24;;;;;;;5.32;4.72;;;;;;;41.73;16.27;101168.53;5026549;28;20060;-79
2023/06/09 11:02:18;;;;;;;5.43;4.95;;;;;;;41.55;17.43;101170.78;5025516;28;20041;-77
2023/06/09 11:04:52;;;;;;;6.18;5.57;;;;;;;40.94;17.07;101166.91;5022929;28;20124;-80
2023/06/09 11:07:27;;;;;;;5.93;5.40;;;;;;;40.18;17.50;101164.50;5026153;28;20554;-73
2023/06/09 11:09:53;;;;;;;6.63;5.47;;;;;;;40.43;17.75;101164.66;5025320;28;20037;-78
2023/06/09 11:12:24;;;;;;;6.85;5.45;;;;;;;41.06;18.41;101168.38;5022253;28;20033;-77
2023/06/09 11:14:56;;;;;;;5.60;5.10;;;;;;;41.51;16.24;101158.47;5025453;28;20257;-80
2023/06/09 11:17:43;;;;;;;5.67;5.17;;;;;;;41.30;17.02;101159.50;5025457;28;20033;-79
2023/06/09 11:22:58;;;;;;;7.17;5.87;;;;;;;41.45;17.51;101151.19;5028074;28;20033;-79
2023/06/09 11:25:26;;;;;;;6.38;5.78;;;;;;;41.50;16.74;101142.78;4994333;28;20308;-74